sensor_id;sensor_type;location;lat;lon;timestamp;P1;durP1;ratioP1;P2;durP2;ratioP2
70455;SDS011;57916;51.996;5.180;2024-01-11T00:01:23;18.73;;;9.35;;
70455;SDS011;57916;51.996;5.180;2024-01-11T00:03:50;18.45;;;9.10;;
70455;SDS011;57916;51.996;5.180;2024-01-11T00:06:16;16.50;;;8.77;;
70455;SDS011;57916;51.996;5.180;2024-01-11T00:08:44;20.95;;;9.68;;
70455;SDS011;57916;51.996;5.180;2024-01-11T00:11:11;16.73;;;9.55;;
70455;SDS011;57916;51.996;5.180;2024-01-11T00:13:39;18.05;;;9.10;;
70455;SDS011;57916;51.996;5.180;2024-01-11T00:16:06;17.02;;;9.23;;
70455;SDS011;57916;51.996;5.180;2024-01-11T00:18:33;17.83;;;8.97;;
70455;SDS011;57916;51.996;5.180;2024-01-11T00:21:00;17.40;;;8.70;;
70455;SDS011;57916;51.996;5.180;2024-01-11T00:23:28;21.05;;;9.77;;
70455;SDS011;57916;51.996;5.180;2024-01-11T00:25:55;17.65;;;9.02;;
70455;SDS011;57916;51.996;5.180;2024-01-11T00:28:22;18.38;;;9.23;;
70455;SDS011;57916;51.996;5.180;2024-01-11T00:30:49;17.85;;;9.18;;
70455;SDS011;57916;51.996;5.180;2024-01-11T00:33:16;19.08;;;8.18;;
70455;SDS011;57916;51.996;5.180;2024-01-11T00:35:43;17.08;;;9.27;;
70455;SDS011;57916;51.996;5.180;2024-01-11T00:38:10;21.85;;;10.07;;
70455;SDS011;57916;51.996;5.180;2024-01-11T00:40:37;21.65;;;9.73;;
70455;SDS011;57916;51.996;5.180;2024-01-11T00:43:04;17.48;;;9.23;;
70455;SDS011;57916;51.996;5.180;2024-01-11T00:45:31;17.60;;;9.35;;
70455;SDS011;57916;51.996;5.180;2024-01-11T00:47:58;18.35;;;9.07;;
70455;SDS011;57916;51.996;5.180;2024-01-11T00:50:25;20.17;;;9.52;;
70455;SDS011;57916;51.996;5.180;2024-01-11T00:52:52;19.10;;;8.90;;
70455;SDS011;57916;51.996;5.180;2024-01-11T00:55:19;21.42;;;9.77;;
70455;SDS011;57916;51.996;5.180;2024-01-11T00:57:46;17.20;;;9.90;;
70455;SDS011;57916;51.996;5.180;2024-01-11T01:00:13;18.45;;;9.00;;
70455;SDS011;57916;51.996;5.180;2024-01-11T01:02:42;19.15;;;9.98;;
70455;SDS011;57916;51.996;5.180;2024-01-11T01:05:09;19.17;;;9.45;;
70455;SDS011;57916;51.996;5.180;2024-01-11T01:07:37;18.10;;;9.60;;
70455;SDS011;57916;51.996;5.180;2024-01-11T01:10:04;21.33;;;9.52;;
70455;SDS011;57916;51.996;5.180;2024-01-11T01:12:31;18.50;;;9.75;;
70455;SDS011;57916;51.996;5.180;2024-01-11T01:14:58;19.20;;;9.95;;
70455;SDS011;57916;51.996;5.180;2024-01-11T01:17:25;18.87;;;9.80;;
70455;SDS011;57916;51.996;5.180;2024-01-11T01:19:52;19.80;;;10.03;;
70455;SDS011;57916;51.996;5.180;2024-01-11T01:22:21;17.73;;;9.02;;
70455;SDS011;57916;51.996;5.180;2024-01-11T01:24:48;21.42;;;9.55;;
70455;SDS011;57916;51.996;5.180;2024-01-11T01:27:15;19.63;;;9.00;;
70455;SDS011;57916;51.996;5.180;2024-01-11T01:29:43;17.67;;;9.10;;
70455;SDS011;57916;51.996;5.180;2024-01-11T01:32:10;21.45;;;9.40;;
70455;SDS011;57916;51.996;5.180;2024-01-11T01:34:37;16.38;;;9.23;;
70455;SDS011;57916;51.996;5.180;2024-01-11T01:37:04;19.50;;;9.70;;
70455;SDS011;57916;51.996;5.180;2024-01-11T01:39:31;18.30;;;9.40;;
70455;SDS011;57916;51.996;5.180;2024-01-11T01:41:58;18.38;;;10.05;;
70455;SDS011;57916;51.996;5.180;2024-01-11T01:44:24;17.08;;;9.27;;
70455;SDS011;57916;51.996;5.180;2024-01-11T01:46:51;21.30;;;9.48;;
70455;SDS011;57916;51.996;5.180;2024-01-11T01:49:19;20.45;;;10.25;;
70455;SDS011;57916;51.996;5.180;2024-01-11T01:51:49;19.48;;;9.70;;
70455;SDS011;57916;51.996;5.180;2024-01-11T01:54:17;17.90;;;9.50;;
70455;SDS011;57916;51.996;5.180;2024-01-11T01:56:47;16.45;;;9.00;;
70455;SDS011;57916;51.996;5.180;2024-01-11T01:59:14;19.20;;;10.18;;
70455;SDS011;57916;51.996;5.180;2024-01-11T02:01:42;18.40;;;8.90;;
70455;SDS011;57916;51.996;5.180;2024-01-11T02:04:09;19.60;;;9.70;;
70455;SDS011;57916;51.996;5.180;2024-01-11T02:06:36;20.25;;;10.00;;
70455;SDS011;57916;51.996;5.180;2024-01-11T02:09:04;19.73;;;9.70;;
70455;SDS011;57916;51.996;5.180;2024-01-11T02:11:34;18.90;;;9.50;;
70455;SDS011;57916;51.996;5.180;2024-01-11T02:14:01;21.55;;;9.98;;
70455;SDS011;57916;51.996;5.180;2024-01-11T02:16:28;19.80;;;10.05;;
70455;SDS011;57916;51.996;5.180;2024-01-11T02:18:55;19.67;;;9.85;;
70455;SDS011;57916;51.996;5.180;2024-01-11T02:21:22;22.77;;;9.70;;
70455;SDS011;57916;51.996;5.180;2024-01-11T02:23:56;20.15;;;9.70;;
70455;SDS011;57916;51.996;5.180;2024-01-11T02:26:33;18.85;;;10.45;;
70455;SDS011;57916;51.996;5.180;2024-01-11T02:29:01;18.27;;;9.70;;
70455;SDS011;57916;51.996;5.180;2024-01-11T02:31:28;24.42;;;9.77;;
70455;SDS011;57916;51.996;5.180;2024-01-11T02:33:55;19.40;;;9.60;;
70455;SDS011;57916;51.996;5.180;2024-01-11T02:36:22;24.20;;;10.40;;
70455;SDS011;57916;51.996;5.180;2024-01-11T02:38:51;19.42;;;10.20;;
70455;SDS011;57916;51.996;5.180;2024-01-11T02:41:19;19.55;;;9.70;;
70455;SDS011;57916;51.996;5.180;2024-01-11T02:43:48;22.98;;;10.68;;
70455;SDS011;57916;51.996;5.180;2024-01-11T02:46:15;22.30;;;10.32;;
70455;SDS011;57916;51.996;5.180;2024-01-11T02:48:44;20.98;;;10.40;;
70455;SDS011;57916;51.996;5.180;2024-01-11T02:51:12;21.33;;;10.73;;
70455;SDS011;57916;51.996;5.180;2024-01-11T02:53:38;20.80;;;10.45;;
70455;SDS011;57916;51.996;5.180;2024-01-11T02:56:05;20.00;;;9.67;;
70455;SDS011;57916;51.996;5.180;2024-01-11T02:58:32;20.83;;;10.60;;
70455;SDS011;57916;51.996;5.180;2024-01-11T03:00:59;22.52;;;10.40;;
70455;SDS011;57916;51.996;5.180;2024-01-11T03:03:27;22.83;;;10.90;;
70455;SDS011;57916;51.996;5.180;2024-01-11T03:05:54;19.60;;;10.63;;
70455;SDS011;57916;51.996;5.180;2024-01-11T03:08:21;22.27;;;11.38;;
70455;SDS011;57916;51.996;5.180;2024-01-11T03:10:48;20.35;;;10.23;;
70455;SDS011;57916;51.996;5.180;2024-01-11T03:13:15;22.67;;;10.95;;
70455;SDS011;57916;51.996;5.180;2024-01-11T03:15:42;23.33;;;11.07;;
70455;SDS011;57916;51.996;5.180;2024-01-11T03:18:09;26.65;;;11.70;;
70455;SDS011;57916;51.996;5.180;2024-01-11T03:20:36;23.85;;;11.05;;
70455;SDS011;57916;51.996;5.180;2024-01-11T03:23:04;22.73;;;11.00;;
70455;SDS011;57916;51.996;5.180;2024-01-11T03:25:31;21.38;;;10.10;;
70455;SDS011;57916;51.996;5.180;2024-01-11T03:27:58;23.42;;;11.40;;
70455;SDS011;57916;51.996;5.180;2024-01-11T03:30:25;21.08;;;11.00;;
70455;SDS011;57916;51.996;5.180;2024-01-11T03:32:52;21.43;;;10.83;;
70455;SDS011;57916;51.996;5.180;2024-01-11T03:35:20;21.67;;;10.38;;
70455;SDS011;57916;51.996;5.180;2024-01-11T03:37:47;22.90;;;11.70;;
70455;SDS011;57916;51.996;5.180;2024-01-11T03:40:14;24.02;;;10.93;;
70455;SDS011;57916;51.996;5.180;2024-01-11T03:42:41;25.52;;;11.80;;
70455;SDS011;57916;51.996;5.180;2024-01-11T03:45:09;21.73;;;11.57;;
70455;SDS011;57916;51.996;5.180;2024-01-11T03:47:36;24.73;;;11.00;;
70455;SDS011;57916;51.996;5.180;2024-01-11T03:50:04;23.73;;;11.88;;
70455;SDS011;57916;51.996;5.180;2024-01-11T03:52:31;21.90;;;11.85;;
70455;SDS011;57916;51.996;5.180;2024-01-11T03:54:58;23.45;;;11.20;;
70455;SDS011;57916;51.996;5.180;2024-01-11T03:57:25;24.25;;;12.85;;
70455;SDS011;57916;51.996;5.180;2024-01-11T03:59:52;23.80;;;11.88;;
70455;SDS011;57916;51.996;5.180;2024-01-11T04:02:19;25.33;;;12.48;;
70455;SDS011;57916;51.996;5.180;2024-01-11T04:04:46;33.00;;;13.25;;
70455;SDS011;57916;51.996;5.180;2024-01-11T04:07:14;27.27;;;12.68;;
70455;SDS011;57916;51.996;5.180;2024-01-11T04:09:40;28.05;;;13.77;;
70455;SDS011;57916;51.996;5.180;2024-01-11T04:12:08;24.75;;;12.40;;
70455;SDS011;57916;51.996;5.180;2024-01-11T04:14:38;22.80;;;12.82;;
70455;SDS011;57916;51.996;5.180;2024-01-11T04:17:08;28.58;;;13.73;;
70455;SDS011;57916;51.996;5.180;2024-01-11T04:19:35;28.45;;;13.43;;
70455;SDS011;57916;51.996;5.180;2024-01-11T04:22:02;26.17;;;13.00;;
70455;SDS011;57916;51.996;5.180;2024-01-11T04:24:29;30.38;;;14.45;;
70455;SDS011;57916;51.996;5.180;2024-01-11T04:26:56;27.80;;;14.27;;
70455;SDS011;57916;51.996;5.180;2024-01-11T04:29:23;29.83;;;14.82;;
70455;SDS011;57916;51.996;5.180;2024-01-11T04:31:50;31.23;;;15.27;;
70455;SDS011;57916;51.996;5.180;2024-01-11T04:34:17;31.15;;;14.30;;
70455;SDS011;57916;51.996;5.180;2024-01-11T04:36:44;32.53;;;15.63;;
70455;SDS011;57916;51.996;5.180;2024-01-11T04:39:11;37.88;;;16.50;;
70455;SDS011;57916;51.996;5.180;2024-01-11T04:41:38;33.22;;;15.82;;
70455;SDS011;57916;51.996;5.180;2024-01-11T04:44:06;34.08;;;16.42;;
70455;SDS011;57916;51.996;5.180;2024-01-11T04:46:33;34.22;;;16.00;;
70455;SDS011;57916;51.996;5.180;2024-01-11T04:49:01;32.53;;;16.73;;
70455;SDS011;57916;51.996;5.180;2024-01-11T04:51:28;32.45;;;15.40;;
70455;SDS011;57916;51.996;5.180;2024-01-11T04:53:55;39.35;;;17.50;;
70455;SDS011;57916;51.996;5.180;2024-01-11T04:56:22;37.88;;;17.45;;
70455;SDS011;57916;51.996;5.180;2024-01-11T04:58:49;36.78;;;16.90;;
70455;SDS011;57916;51.996;5.180;2024-01-11T05:01:16;37.88;;;18.52;;
70455;SDS011;57916;51.996;5.180;2024-01-11T05:03:44;31.25;;;14.60;;
70455;SDS011;57916;51.996;5.180;2024-01-11T05:06:16;37.53;;;18.00;;
70455;SDS011;57916;51.996;5.180;2024-01-11T05:08:51;39.05;;;18.55;;
70455;SDS011;57916;51.996;5.180;2024-01-11T05:11:19;40.13;;;18.93;;
70455;SDS011;57916;51.996;5.180;2024-01-11T05:13:48;40.67;;;19.33;;
70455;SDS011;57916;51.996;5.180;2024-01-11T05:16:28;40.97;;;19.15;;
70455;SDS011;57916;51.996;5.180;2024-01-11T05:18:56;40.40;;;18.90;;
70455;SDS011;57916;51.996;5.180;2024-01-11T05:21:24;35.85;;;16.95;;
70455;SDS011;57916;51.996;5.180;2024-01-11T05:23:52;47.00;;;19.40;;
70455;SDS011;57916;51.996;5.180;2024-01-11T05:26:19;44.00;;;19.42;;
70455;SDS011;57916;51.996;5.180;2024-01-11T05:28:47;42.63;;;20.23;;
70455;SDS011;57916;51.996;5.180;2024-01-11T05:31:15;38.38;;;18.20;;
70455;SDS011;57916;51.996;5.180;2024-01-11T05:33:43;40.03;;;19.57;;
70455;SDS011;57916;51.996;5.180;2024-01-11T05:36:11;36.17;;;18.65;;
70455;SDS011;57916;51.996;5.180;2024-01-11T05:38:38;46.38;;;20.38;;
70455;SDS011;57916;51.996;5.180;2024-01-11T05:41:06;40.83;;;20.92;;
70455;SDS011;57916;51.996;5.180;2024-01-11T05:43:34;56.30;;;25.25;;
70455;SDS011;57916;51.996;5.180;2024-01-11T05:46:02;60.38;;;26.25;;
70455;SDS011;57916;51.996;5.180;2024-01-11T05:48:29;46.13;;;19.83;;
70455;SDS011;57916;51.996;5.180;2024-01-11T05:50:56;46.58;;;20.38;;
70455;SDS011;57916;51.996;5.180;2024-01-11T05:53:23;40.13;;;19.67;;
70455;SDS011;57916;51.996;5.180;2024-01-11T05:55:51;41.45;;;19.25;;
70455;SDS011;57916;51.996;5.180;2024-01-11T05:58:20;45.87;;;19.67;;
70455;SDS011;57916;51.996;5.180;2024-01-11T06:00:47;42.08;;;19.65;;
70455;SDS011;57916;51.996;5.180;2024-01-11T06:03:14;39.53;;;20.08;;
70455;SDS011;57916;51.996;5.180;2024-01-11T06:05:41;43.53;;;20.33;;
70455;SDS011;57916;51.996;5.180;2024-01-11T06:08:09;43.10;;;20.57;;
70455;SDS011;57916;51.996;5.180;2024-01-11T06:10:36;47.00;;;19.80;;
70455;SDS011;57916;51.996;5.180;2024-01-11T06:13:03;40.85;;;20.27;;
70455;SDS011;57916;51.996;5.180;2024-01-11T06:15:30;44.92;;;20.88;;
70455;SDS011;57916;51.996;5.180;2024-01-11T06:17:58;50.50;;;20.35;;
70455;SDS011;57916;51.996;5.180;2024-01-11T06:20:25;42.63;;;19.65;;
70455;SDS011;57916;51.996;5.180;2024-01-11T06:22:52;39.83;;;19.27;;
70455;SDS011;57916;51.996;5.180;2024-01-11T06:25:19;43.40;;;20.58;;
70455;SDS011;57916;51.996;5.180;2024-01-11T06:27:46;40.45;;;19.98;;
70455;SDS011;57916;51.996;5.180;2024-01-11T06:30:14;41.58;;;19.60;;
70455;SDS011;57916;51.996;5.180;2024-01-11T06:32:41;38.97;;;19.40;;
70455;SDS011;57916;51.996;5.180;2024-01-11T06:35:08;43.45;;;20.25;;
70455;SDS011;57916;51.996;5.180;2024-01-11T06:37:36;40.60;;;20.17;;
70455;SDS011;57916;51.996;5.180;2024-01-11T06:40:03;41.33;;;20.10;;
70455;SDS011;57916;51.996;5.180;2024-01-11T06:42:30;46.80;;;21.30;;
70455;SDS011;57916;51.996;5.180;2024-01-11T06:44:57;43.42;;;22.20;;
70455;SDS011;57916;51.996;5.180;2024-01-11T06:47:24;44.75;;;21.25;;
70455;SDS011;57916;51.996;5.180;2024-01-11T06:49:52;41.97;;;20.70;;
70455;SDS011;57916;51.996;5.180;2024-01-11T06:52:20;45.92;;;20.52;;
70455;SDS011;57916;51.996;5.180;2024-01-11T06:54:46;44.35;;;20.75;;
70455;SDS011;57916;51.996;5.180;2024-01-11T06:57:13;47.13;;;20.85;;
70455;SDS011;57916;51.996;5.180;2024-01-11T06:59:40;44.67;;;20.93;;
70455;SDS011;57916;51.996;5.180;2024-01-11T07:02:07;41.22;;;20.33;;
70455;SDS011;57916;51.996;5.180;2024-01-11T07:04:34;49.00;;;22.23;;
70455;SDS011;57916;51.996;5.180;2024-01-11T07:07:01;45.47;;;21.08;;
70455;SDS011;57916;51.996;5.180;2024-01-11T07:09:31;46.28;;;20.83;;
70455;SDS011;57916;51.996;5.180;2024-01-11T07:11:58;45.08;;;20.55;;
70455;SDS011;57916;51.996;5.180;2024-01-11T07:14:25;47.70;;;22.20;;
70455;SDS011;57916;51.996;5.180;2024-01-11T07:16:51;42.40;;;20.17;;
70455;SDS011;57916;51.996;5.180;2024-01-11T07:19:18;45.33;;;21.23;;
70455;SDS011;57916;51.996;5.180;2024-01-11T07:21:46;42.95;;;20.83;;
70455;SDS011;57916;51.996;5.180;2024-01-11T07:24:13;20.65;;;10.93;;
70455;SDS011;57916;51.996;5.180;2024-01-11T07:26:40;45.00;;;20.83;;
70455;SDS011;57916;51.996;5.180;2024-01-11T07:29:08;46.92;;;22.20;;
70455;SDS011;57916;51.996;5.180;2024-01-11T07:31:35;49.83;;;22.48;;
70455;SDS011;57916;51.996;5.180;2024-01-11T07:34:02;46.47;;;22.50;;
70455;SDS011;57916;51.996;5.180;2024-01-11T07:36:29;46.58;;;21.58;;
70455;SDS011;57916;51.996;5.180;2024-01-11T07:38:56;45.58;;;20.83;;
70455;SDS011;57916;51.996;5.180;2024-01-11T07:41:23;51.90;;;21.80;;
70455;SDS011;57916;51.996;5.180;2024-01-11T07:43:50;51.08;;;21.85;;
70455;SDS011;57916;51.996;5.180;2024-01-11T07:46:20;48.90;;;22.42;;
70455;SDS011;57916;51.996;5.180;2024-01-11T07:49:04;46.88;;;21.85;;
70455;SDS011;57916;51.996;5.180;2024-01-11T07:51:31;47.75;;;21.95;;
70455;SDS011;57916;51.996;5.180;2024-01-11T07:53:59;47.47;;;21.48;;
70455;SDS011;57916;51.996;5.180;2024-01-11T07:56:26;46.35;;;22.13;;
70455;SDS011;57916;51.996;5.180;2024-01-11T07:58:53;47.30;;;22.27;;
70455;SDS011;57916;51.996;5.180;2024-01-11T08:01:20;52.22;;;23.95;;
70455;SDS011;57916;51.996;5.180;2024-01-11T08:03:47;45.67;;;23.00;;
70455;SDS011;57916;51.996;5.180;2024-01-11T08:06:14;45.50;;;22.27;;
70455;SDS011;57916;51.996;5.180;2024-01-11T08:08:41;50.80;;;23.05;;
70455;SDS011;57916;51.996;5.180;2024-01-11T08:11:09;51.03;;;23.05;;
70455;SDS011;57916;51.996;5.180;2024-01-11T08:13:40;52.53;;;23.25;;
70455;SDS011;57916;51.996;5.180;2024-01-11T08:16:06;52.08;;;24.10;;
70455;SDS011;57916;51.996;5.180;2024-01-11T08:18:36;48.78;;;23.05;;
70455;SDS011;57916;51.996;5.180;2024-01-11T08:21:03;51.53;;;24.17;;
70455;SDS011;57916;51.996;5.180;2024-01-11T08:23:41;46.40;;;22.23;;
70455;SDS011;57916;51.996;5.180;2024-01-11T08:26:12;47.33;;;23.33;;
70455;SDS011;57916;51.996;5.180;2024-01-11T08:28:45;52.40;;;23.38;;
70455;SDS011;57916;51.996;5.180;2024-01-11T08:31:12;51.08;;;24.48;;
70455;SDS011;57916;51.996;5.180;2024-01-11T08:33:39;54.42;;;25.08;;
70455;SDS011;57916;51.996;5.180;2024-01-11T08:36:07;50.58;;;24.20;;
70455;SDS011;57916;51.996;5.180;2024-01-11T08:38:34;55.50;;;26.30;;
70455;SDS011;57916;51.996;5.180;2024-01-11T08:41:02;53.25;;;25.38;;
70455;SDS011;57916;51.996;5.180;2024-01-11T08:43:30;51.83;;;25.13;;
70455;SDS011;57916;51.996;5.180;2024-01-11T08:45:57;51.22;;;24.30;;
70455;SDS011;57916;51.996;5.180;2024-01-11T08:48:24;53.17;;;26.05;;
70455;SDS011;57916;51.996;5.180;2024-01-11T08:50:52;51.33;;;25.15;;
70455;SDS011;57916;51.996;5.180;2024-01-11T08:53:19;55.38;;;25.25;;
70455;SDS011;57916;51.996;5.180;2024-01-11T08:55:46;49.08;;;24.60;;
70455;SDS011;57916;51.996;5.180;2024-01-11T08:58:14;54.93;;;26.77;;
70455;SDS011;57916;51.996;5.180;2024-01-11T09:00:40;47.67;;;23.70;;
70455;SDS011;57916;51.996;5.180;2024-01-11T09:03:08;57.03;;;26.70;;
70455;SDS011;57916;51.996;5.180;2024-01-11T09:05:35;52.45;;;24.75;;
70455;SDS011;57916;51.996;5.180;2024-01-11T09:08:02;43.22;;;21.02;;
70455;SDS011;57916;51.996;5.180;2024-01-11T09:10:30;42.45;;;20.63;;
70455;SDS011;57916;51.996;5.180;2024-01-11T09:12:57;50.05;;;23.45;;
70455;SDS011;57916;51.996;5.180;2024-01-11T09:15:24;35.60;;;18.58;;
70455;SDS011;57916;51.996;5.180;2024-01-11T09:17:51;46.95;;;22.60;;
70455;SDS011;57916;51.996;5.180;2024-01-11T09:20:21;40.13;;;19.40;;
70455;SDS011;57916;51.996;5.180;2024-01-11T09:22:48;50.08;;;22.55;;
70455;SDS011;57916;51.996;5.180;2024-01-11T09:25:15;43.50;;;21.42;;
70455;SDS011;57916;51.996;5.180;2024-01-11T09:27:42;50.80;;;23.05;;
70455;SDS011;57916;51.996;5.180;2024-01-11T09:30:09;39.25;;;20.02;;
70455;SDS011;57916;51.996;5.180;2024-01-11T09:32:36;45.58;;;21.55;;
70455;SDS011;57916;51.996;5.180;2024-01-11T09:35:03;42.47;;;20.73;;
70455;SDS011;57916;51.996;5.180;2024-01-11T09:37:31;45.33;;;21.70;;
70455;SDS011;57916;51.996;5.180;2024-01-11T09:39:58;42.72;;;20.70;;
70455;SDS011;57916;51.996;5.180;2024-01-11T09:42:27;44.25;;;21.25;;
70455;SDS011;57916;51.996;5.180;2024-01-11T09:44:54;39.53;;;17.60;;
70455;SDS011;57916;51.996;5.180;2024-01-11T09:47:23;38.85;;;19.27;;
70455;SDS011;57916;51.996;5.180;2024-01-11T09:49:53;41.70;;;20.50;;
70455;SDS011;57916;51.996;5.180;2024-01-11T09:52:21;37.30;;;18.08;;
70455;SDS011;57916;51.996;5.180;2024-01-11T09:54:51;32.75;;;16.75;;
70455;SDS011;57916;51.996;5.180;2024-01-11T09:57:21;36.63;;;17.97;;
70455;SDS011;57916;51.996;5.180;2024-01-11T09:59:54;41.55;;;19.88;;
70455;SDS011;57916;51.996;5.180;2024-01-11T10:02:23;38.70;;;18.95;;
70455;SDS011;57916;51.996;5.180;2024-01-11T10:04:53;39.13;;;19.70;;
70455;SDS011;57916;51.996;5.180;2024-01-11T10:07:23;33.42;;;17.73;;
70455;SDS011;57916;51.996;5.180;2024-01-11T10:09:51;24.00;;;12.03;;
70455;SDS011;57916;51.996;5.180;2024-01-11T10:12:22;34.83;;;17.73;;
70455;SDS011;57916;51.996;5.180;2024-01-11T10:14:52;40.53;;;18.63;;
70455;SDS011;57916;51.996;5.180;2024-01-11T10:17:19;39.92;;;17.30;;
70455;SDS011;57916;51.996;5.180;2024-01-11T10:19:52;36.15;;;17.15;;
70455;SDS011;57916;51.996;5.180;2024-01-11T10:22:25;34.40;;;16.50;;
70455;SDS011;57916;51.996;5.180;2024-01-11T10:25:07;40.63;;;17.38;;
70455;SDS011;57916;51.996;5.180;2024-01-11T10:27:38;34.10;;;14.80;;
70455;SDS011;57916;51.996;5.180;2024-01-11T10:30:09;36.25;;;16.48;;
70455;SDS011;57916;51.996;5.180;2024-01-11T10:32:40;43.95;;;18.75;;
70455;SDS011;57916;51.996;5.180;2024-01-11T10:35:07;39.13;;;17.52;;
70455;SDS011;57916;51.996;5.180;2024-01-11T10:37:34;33.92;;;15.85;;
70455;SDS011;57916;51.996;5.180;2024-01-11T10:40:03;35.67;;;15.83;;
70455;SDS011;57916;51.996;5.180;2024-01-11T10:42:42;31.55;;;13.27;;
70455;SDS011;57916;51.996;5.180;2024-01-11T10:45:16;37.30;;;16.02;;
70455;SDS011;57916;51.996;5.180;2024-01-11T10:50:22;37.78;;;16.80;;
70455;SDS011;57916;51.996;5.180;2024-01-11T10:52:56;39.72;;;17.13;;
70455;SDS011;57916;51.996;5.180;2024-01-11T10:55:44;37.97;;;16.30;;
70455;SDS011;57916;51.996;5.180;2024-01-11T10:58:12;37.78;;;16.27;;
70455;SDS011;57916;51.996;5.180;2024-01-11T11:00:41;38.38;;;17.42;;
70455;SDS011;57916;51.996;5.180;2024-01-11T11:03:08;34.83;;;15.68;;
70455;SDS011;57916;51.996;5.180;2024-01-11T11:05:36;37.17;;;16.33;;
70455;SDS011;57916;51.996;5.180;2024-01-11T11:08:04;36.40;;;15.73;;
70455;SDS011;57916;51.996;5.180;2024-01-11T11:10:37;39.00;;;16.45;;
70455;SDS011;57916;51.996;5.180;2024-01-11T11:13:07;34.70;;;15.18;;
70455;SDS011;57916;51.996;5.180;2024-01-11T11:15:36;35.45;;;15.10;;
70455;SDS011;57916;51.996;5.180;2024-01-11T11:18:04;29.05;;;13.52;;
70455;SDS011;57916;51.996;5.180;2024-01-11T11:20:32;40.85;;;16.30;;
70455;SDS011;57916;51.996;5.180;2024-01-11T11:23:03;34.45;;;15.25;;
70455;SDS011;57916;51.996;5.180;2024-01-11T11:25:33;35.75;;;15.68;;
70455;SDS011;57916;51.996;5.180;2024-01-11T11:28:00;35.95;;;15.07;;
70455;SDS011;57916;51.996;5.180;2024-01-11T11:30:31;39.70;;;15.43;;
70455;SDS011;57916;51.996;5.180;2024-01-11T11:33:08;82.85;;;44.38;;
70455;SDS011;57916;51.996;5.180;2024-01-11T11:35:37;41.92;;;18.60;;
70455;SDS011;57916;51.996;5.180;2024-01-11T11:38:05;40.80;;;18.67;;
70455;SDS011;57916;51.996;5.180;2024-01-11T11:40:38;35.25;;;14.57;;
70455;SDS011;57916;51.996;5.180;2024-01-11T11:43:06;39.22;;;16.23;;
70455;SDS011;57916;51.996;5.180;2024-01-11T11:45:33;32.38;;;14.23;;
70455;SDS011;57916;51.996;5.180;2024-01-11T11:48:01;36.22;;;15.65;;
70455;SDS011;57916;51.996;5.180;2024-01-11T11:50:29;32.60;;;15.05;;
70455;SDS011;57916;51.996;5.180;2024-01-11T11:52:57;33.33;;;15.00;;
70455;SDS011;57916;51.996;5.180;2024-01-11T11:55:24;36.92;;;15.15;;
70455;SDS011;57916;51.996;5.180;2024-01-11T11:57:52;28.92;;;12.70;;
70455;SDS011;57916;51.996;5.180;2024-01-11T12:00:22;35.97;;;15.52;;
70455;SDS011;57916;51.996;5.180;2024-01-11T12:02:50;37.10;;;15.88;;
70455;SDS011;57916;51.996;5.180;2024-01-11T12:05:22;32.20;;;15.00;;
70455;SDS011;57916;51.996;5.180;2024-01-11T12:07:49;29.50;;;13.77;;
70455;SDS011;57916;51.996;5.180;2024-01-11T12:10:17;31.77;;;14.45;;
70455;SDS011;57916;51.996;5.180;2024-01-11T12:12:44;29.85;;;14.10;;
70455;SDS011;57916;51.996;5.180;2024-01-11T12:15:11;27.38;;;13.75;;
70455;SDS011;57916;51.996;5.180;2024-01-11T12:17:39;29.80;;;13.70;;
70455;SDS011;57916;51.996;5.180;2024-01-11T12:20:09;32.50;;;15.95;;
70455;SDS011;57916;51.996;5.180;2024-01-11T12:22:36;31.67;;;14.10;;
70455;SDS011;57916;51.996;5.180;2024-01-11T12:25:04;28.75;;;13.98;;
70455;SDS011;57916;51.996;5.180;2024-01-11T12:27:32;25.67;;;13.65;;
70455;SDS011;57916;51.996;5.180;2024-01-11T12:29:59;24.90;;;12.10;;
70455;SDS011;57916;51.996;5.180;2024-01-11T12:32:28;27.95;;;13.55;;
70455;SDS011;57916;51.996;5.180;2024-01-11T12:34:56;26.35;;;13.05;;
70455;SDS011;57916;51.996;5.180;2024-01-11T12:37:24;26.92;;;13.60;;
70455;SDS011;57916;51.996;5.180;2024-01-11T12:39:59;26.50;;;12.52;;
70455;SDS011;57916;51.996;5.180;2024-01-11T12:42:29;25.98;;;12.38;;
70455;SDS011;57916;51.996;5.180;2024-01-11T12:44:56;26.08;;;12.55;;
70455;SDS011;57916;51.996;5.180;2024-01-11T12:47:25;24.35;;;12.15;;
70455;SDS011;57916;51.996;5.180;2024-01-11T12:49:52;25.90;;;12.77;;
70455;SDS011;57916;51.996;5.180;2024-01-11T12:52:19;23.70;;;12.18;;
70455;SDS011;57916;51.996;5.180;2024-01-11T12:54:46;24.50;;;12.40;;
70455;SDS011;57916;51.996;5.180;2024-01-11T12:57:17;23.35;;;11.65;;
70455;SDS011;57916;51.996;5.180;2024-01-11T12:59:48;21.63;;;11.48;;
70455;SDS011;57916;51.996;5.180;2024-01-11T13:02:15;23.27;;;12.25;;
70455;SDS011;57916;51.996;5.180;2024-01-11T13:04:45;24.38;;;11.52;;
70455;SDS011;57916;51.996;5.180;2024-01-11T13:07:15;20.58;;;11.38;;
70455;SDS011;57916;51.996;5.180;2024-01-11T13:09:42;26.00;;;12.77;;
70455;SDS011;57916;51.996;5.180;2024-01-11T13:12:09;24.52;;;12.20;;
70455;SDS011;57916;51.996;5.180;2024-01-11T13:14:36;24.35;;;12.10;;
70455;SDS011;57916;51.996;5.180;2024-01-11T13:17:06;21.88;;;11.52;;
70455;SDS011;57916;51.996;5.180;2024-01-11T13:19:34;22.85;;;12.15;;
70455;SDS011;57916;51.996;5.180;2024-01-11T13:22:02;27.17;;;12.45;;
70455;SDS011;57916;51.996;5.180;2024-01-11T13:24:29;27.23;;;12.20;;
70455;SDS011;57916;51.996;5.180;2024-01-11T13:26:56;26.13;;;12.77;;
70455;SDS011;57916;51.996;5.180;2024-01-11T13:29:23;24.13;;;11.77;;
70455;SDS011;57916;51.996;5.180;2024-01-11T13:31:50;24.27;;;12.43;;
70455;SDS011;57916;51.996;5.180;2024-01-11T13:34:17;23.90;;;11.80;;
70455;SDS011;57916;51.996;5.180;2024-01-11T13:36:45;28.40;;;12.00;;
70455;SDS011;57916;51.996;5.180;2024-01-11T13:39:12;24.05;;;12.07;;
70455;SDS011;57916;51.996;5.180;2024-01-11T13:41:38;28.08;;;12.05;;
70455;SDS011;57916;51.996;5.180;2024-01-11T13:44:07;26.35;;;12.13;;
70455;SDS011;57916;51.996;5.180;2024-01-11T13:46:35;20.75;;;11.32;;
70455;SDS011;57916;51.996;5.180;2024-01-11T13:49:02;22.77;;;11.82;;
70455;SDS011;57916;51.996;5.180;2024-01-11T13:51:30;23.85;;;11.82;;
70455;SDS011;57916;51.996;5.180;2024-01-11T13:54:11;26.38;;;12.27;;
70455;SDS011;57916;51.996;5.180;2024-01-11T13:56:38;21.58;;;11.50;;
70455;SDS011;57916;51.996;5.180;2024-01-11T13:59:05;23.15;;;11.85;;
70455;SDS011;57916;51.996;5.180;2024-01-11T14:01:32;25.52;;;11.80;;
70455;SDS011;57916;51.996;5.180;2024-01-11T14:03:59;27.10;;;11.88;;
70455;SDS011;57916;51.996;5.180;2024-01-11T14:06:26;23.17;;;11.63;;
70455;SDS011;57916;51.996;5.180;2024-01-11T14:08:53;20.73;;;11.65;;
70455;SDS011;57916;51.996;5.180;2024-01-11T14:11:20;25.65;;;11.90;;
70455;SDS011;57916;51.996;5.180;2024-01-11T14:13:47;30.13;;;12.55;;
70455;SDS011;57916;51.996;5.180;2024-01-11T14:16:14;26.38;;;12.18;;
70455;SDS011;57916;51.996;5.180;2024-01-11T14:18:43;26.30;;;12.77;;
70455;SDS011;57916;51.996;5.180;2024-01-11T14:21:10;27.13;;;12.60;;
70455;SDS011;57916;51.996;5.180;2024-01-11T14:23:38;25.27;;;12.70;;
70455;SDS011;57916;51.996;5.180;2024-01-11T14:26:05;25.10;;;12.53;;
70455;SDS011;57916;51.996;5.180;2024-01-11T14:28:32;23.93;;;12.20;;
70455;SDS011;57916;51.996;5.180;2024-01-11T14:30:59;27.88;;;12.63;;